Bryan, Texas
Current Conditions -  °F | °C
As of 8:35 AM on Sunday 23 Nov 2014 (Local Time) from KCFD Reporting Station
Broken Clouds Broken Clouds  
Wind Chill: 59°   Ceiling: 700
Heat Index: 59°   Visibility: 10mi
Dew Point: 58°   Wind: 5mph
Humidity: 95%   Direction: 240°WSW
Pressure: 29.67"   Gusts: NA
Location:  30.67°N, 96.37°W
Report Text: KCFD 231435Z AUTO 24004KT 10SM BKN007 15/14 A2967 RMK AO2 T01500142
Loading
Personal Weather Stations






























Interactive Weather Map New forecast layout! Learn more

10-Day Weather Forecast

Advertisements
Track Severe Weather on mobile